sensor_id;sensor_type;location;lat;lon;timestamp;pressure;altitude;pressure_sealevel;temperature;humidity
63204;BME280;49297;43.210;27.914;2022-12-18T00:00:44;101812.31;;;11.51;68.30
63204;BME280;49297;43.210;27.914;2022-12-18T00:03:15;101817.00;;;11.47;67.90
63204;BME280;49297;43.210;27.914;2022-12-18T00:05:51;101819.44;;;11.50;67.85
63204;BME280;49297;43.210;27.914;2022-12-18T00:08:18;101823.53;;;11.54;67.63
63204;BME280;49297;43.210;27.914;2022-12-18T00:10:45;101839.22;;;11.57;67.48
63204;BME280;49297;43.210;27.914;2022-12-18T00:13:11;101830.53;;;11.55;66.84
63204;BME280;49297;43.210;27.914;2022-12-18T00:15:38;101834.03;;;11.56;66.96
63204;BME280;49297;43.210;27.914;2022-12-18T00:18:05;101830.28;;;11.58;66.81
63204;BME280;49297;43.210;27.914;2022-12-18T00:20:36;101829.56;;;11.56;66.66
63204;BME280;49297;43.210;27.914;2022-12-18T00:23:02;101835.84;;;11.55;66.43
63204;BME280;49297;43.210;27.914;2022-12-18T00:25:28;101835.84;;;11.55;66.54
63204;BME280;49297;43.210;27.914;2022-12-18T00:27:53;101837.50;;;11.56;66.39
63204;BME280;49297;43.210;27.914;2022-12-18T00:30:19;101835.84;;;11.55;66.46
63204;BME280;49297;43.210;27.914;2022-12-18T00:32:45;101845.59;;;11.55;66.97
63204;BME280;49297;43.210;27.914;2022-12-18T00:35:11;101861.03;;;11.50;66.76
63204;BME280;49297;43.210;27.914;2022-12-18T00:37:36;101870.88;;;11.48;66.64
63204;BME280;49297;43.210;27.914;2022-12-18T00:40:03;101866.66;;;11.45;66.45
63204;BME280;49297;43.210;27.914;2022-12-18T00:42:28;101869.31;;;11.45;66.52
63204;BME280;49297;43.210;27.914;2022-12-18T00:45:12;101873.16;;;11.41;66.63
63204;BME280;49297;43.210;27.914;2022-12-18T00:47:39;101858.53;;;11.35;66.75
63204;BME280;49297;43.210;27.914;2022-12-18T00:50:05;101865.88;;;11.32;66.80
63204;BME280;49297;43.210;27.914;2022-12-18T00:52:31;101865.88;;;11.32;66.94
63204;BME280;49297;43.210;27.914;2022-12-18T00:54:57;101865.03;;;11.31;66.94
63204;BME280;49297;43.210;27.914;2022-12-18T00:57:22;101867.06;;;11.28;66.46
63204;BME280;49297;43.210;27.914;2022-12-18T00:59:48;101877.16;;;11.22;66.63
63204;BME280;49297;43.210;27.914;2022-12-18T01:02:14;101881.00;;;11.18;67.02
63204;BME280;49297;43.210;27.914;2022-12-18T01:04:40;101881.75;;;11.20;67.05
63204;BME280;49297;43.210;27.914;2022-12-18T01:07:05;101881.84;;;11.19;67.16
63204;BME280;49297;43.210;27.914;2022-12-18T01:09:31;101886.31;;;11.18;67.22
63204;BME280;49297;43.210;27.914;2022-12-18T01:11:57;101879.66;;;11.13;66.97
63204;BME280;49297;43.210;27.914;2022-12-18T01:14:22;101875.31;;;11.12;67.38
63204;BME280;49297;43.210;27.914;2022-12-18T01:16:48;101883.25;;;11.12;67.45
63204;BME280;49297;43.210;27.914;2022-12-18T01:19:14;101887.63;;;11.13;67.43
63204;BME280;49297;43.210;27.914;2022-12-18T01:21:40;101894.69;;;11.12;67.45
63204;BME280;49297;43.210;27.914;2022-12-18T01:24:05;101896.28;;;11.15;67.52
63204;BME280;49297;43.210;27.914;2022-12-18T01:26:31;101908.72;;;11.14;67.20
63204;BME280;49297;43.210;27.914;2022-12-18T01:28:57;101899.69;;;11.17;67.05
63204;BME280;49297;43.210;27.914;2022-12-18T01:31:26;101896.91;;;11.18;67.14
63204;BME280;49297;43.210;27.914;2022-12-18T01:33:54;101900.88;;;11.13;66.90
63204;BME280;49297;43.210;27.914;2022-12-18T01:36:24;101896.00;;;11.07;66.91
63204;BME280;49297;43.210;27.914;2022-12-18T01:38:51;101897.09;;;11.04;66.90
63204;BME280;49297;43.210;27.914;2022-12-18T01:41:20;101897.28;;;11.01;67.25
63204;BME280;49297;43.210;27.914;2022-12-18T01:46:16;101905.59;;;10.96;67.46
63204;BME280;49297;43.210;27.914;2022-12-18T01:48:43;101912.34;;;11.00;67.49
63204;BME280;49297;43.210;27.914;2022-12-18T01:51:11;101920.41;;;10.99;67.42
63204;BME280;49297;43.210;27.914;2022-12-18T01:53:39;101929.19;;;10.99;67.12
63204;BME280;49297;43.210;27.914;2022-12-18T01:56:07;101928.16;;;11.02;67.58
63204;BME280;49297;43.210;27.914;2022-12-18T02:01:03;101928.88;;;11.04;66.93
63204;BME280;49297;43.210;27.914;2022-12-18T02:03:29;101922.75;;;11.03;67.07
63204;BME280;49297;43.210;27.914;2022-12-18T02:08:50;101924.41;;;11.04;66.87
63204;BME280;49297;43.210;27.914;2022-12-18T02:19:40;101933.03;;;10.95;66.88
63204;BME280;49297;43.210;27.914;2022-12-18T02:27:47;101928.41;;;10.86;67.30
63204;BME280;49297;43.210;27.914;2022-12-18T02:30:15;101927.69;;;10.84;67.20
63204;BME280;49297;43.210;27.914;2022-12-18T02:32:45;101954.16;;;10.84;67.34
63204;BME280;49297;43.210;27.914;2022-12-18T02:35:25;101958.22;;;10.77;67.30
63204;BME280;49297;43.210;27.914;2022-12-18T02:37:53;101961.16;;;10.72;67.33
63204;BME280;49297;43.210;27.914;2022-12-18T02:40:19;101969.22;;;10.71;67.68
63204;BME280;49297;43.210;27.914;2022-12-18T02:42:46;101973.06;;;10.66;67.80
63204;BME280;49297;43.210;27.914;2022-12-18T02:45:12;101972.41;;;10.63;68.07
63204;BME280;49297;43.210;27.914;2022-12-18T02:47:40;101985.88;;;10.60;68.25
63204;BME280;49297;43.210;27.914;2022-12-18T02:50:41;101987.47;;;10.62;67.76
63204;BME280;49297;43.210;27.914;2022-12-18T02:53:36;102002.84;;;10.57;68.11
63204;BME280;49297;43.210;27.914;2022-12-18T03:04:16;101989.16;;;10.51;67.71
63204;BME280;49297;43.210;27.914;2022-12-18T03:06:47;101986.63;;;10.49;67.93
63204;BME280;49297;43.210;27.914;2022-12-18T03:09:19;101991.06;;;10.48;68.06
63204;BME280;49297;43.210;27.914;2022-12-18T03:11:53;101994.66;;;10.47;67.85
63204;BME280;49297;43.210;27.914;2022-12-18T03:14:40;101995.72;;;10.45;68.03
63204;BME280;49297;43.210;27.914;2022-12-18T03:17:10;101985.66;;;10.37;68.15
63204;BME280;49297;43.210;27.914;2022-12-18T03:19:40;101982.25;;;10.35;68.35
63204;BME280;49297;43.210;27.914;2022-12-18T03:22:07;101984.06;;;10.35;68.55
63204;BME280;49297;43.210;27.914;2022-12-18T03:24:34;101985.16;;;10.32;68.58
63204;BME280;49297;43.210;27.914;2022-12-18T03:27:07;101988.78;;;10.29;68.66
63204;BME280;49297;43.210;27.914;2022-12-18T03:29:42;101987.41;;;10.24;68.71
63204;BME280;49297;43.210;27.914;2022-12-18T03:32:14;101992.19;;;10.19;68.98
63204;BME280;49297;43.210;27.914;2022-12-18T03:34:43;101986.25;;;10.15;69.24
63204;BME280;49297;43.210;27.914;2022-12-18T03:37:11;101991.97;;;10.09;69.45
63204;BME280;49297;43.210;27.914;2022-12-18T03:39:37;101999.78;;;10.10;69.55
63204;BME280;49297;43.210;27.914;2022-12-18T03:42:25;102003.69;;;10.05;70.00
63204;BME280;49297;43.210;27.914;2022-12-18T03:45:10;102012.59;;;10.04;69.46
63204;BME280;49297;43.210;27.914;2022-12-18T03:50:23;102004.31;;;10.08;69.35
63204;BME280;49297;43.210;27.914;2022-12-18T03:55:23;102025.00;;;10.16;69.48
63204;BME280;49297;43.210;27.914;2022-12-18T03:57:52;102034.53;;;10.19;69.07
63204;BME280;49297;43.210;27.914;2022-12-18T04:00:19;102048.19;;;10.25;69.27
63204;BME280;49297;43.210;27.914;2022-12-18T04:02:51;102053.00;;;10.33;69.12
63204;BME280;49297;43.210;27.914;2022-12-18T04:05:18;102054.47;;;10.37;68.83
63204;BME280;49297;43.210;27.914;2022-12-18T04:07:47;102072.72;;;10.42;68.63
63204;BME280;49297;43.210;27.914;2022-12-18T04:10:14;102085.75;;;10.45;68.83
63204;BME280;49297;43.210;27.914;2022-12-18T04:12:41;102087.34;;;10.47;68.80
63204;BME280;49297;43.210;27.914;2022-12-18T04:15:08;102106.41;;;10.53;68.33
63204;BME280;49297;43.210;27.914;2022-12-18T04:17:34;102109.78;;;10.55;68.13
63204;BME280;49297;43.210;27.914;2022-12-18T04:19:59;102112.53;;;10.53;66.67
63204;BME280;49297;43.210;27.914;2022-12-18T04:22:26;102124.94;;;10.53;65.27
63204;BME280;49297;43.210;27.914;2022-12-18T04:24:52;102128.84;;;10.47;64.20
63204;BME280;49297;43.210;27.914;2022-12-18T04:27:18;102141.84;;;10.37;63.57
63204;BME280;49297;43.210;27.914;2022-12-18T04:29:44;102143.97;;;10.32;63.88
63204;BME280;49297;43.210;27.914;2022-12-18T04:32:10;102144.13;;;10.29;64.20
63204;BME280;49297;43.210;27.914;2022-12-18T04:34:36;102157.66;;;10.24;63.49
63204;BME280;49297;43.210;27.914;2022-12-18T04:37:01;102150.22;;;10.17;63.37
63204;BME280;49297;43.210;27.914;2022-12-18T04:39:27;102150.50;;;10.12;63.53
63204;BME280;49297;43.210;27.914;2022-12-18T04:41:53;102165.00;;;10.06;63.80
63204;BME280;49297;43.210;27.914;2022-12-18T04:44:19;102170.47;;;10.03;63.82
63204;BME280;49297;43.210;27.914;2022-12-18T04:46:44;102173.25;;;10.02;63.50
63204;BME280;49297;43.210;27.914;2022-12-18T04:49:10;102183.94;;;10.00;63.37
63204;BME280;49297;43.210;27.914;2022-12-18T04:51:37;102191.88;;;10.00;63.86
63204;BME280;49297;43.210;27.914;2022-12-18T04:54:03;102196.28;;;10.00;63.06
63204;BME280;49297;43.210;27.914;2022-12-18T04:56:31;102190.34;;;9.96;62.70
63204;BME280;49297;43.210;27.914;2022-12-18T04:58:57;102183.09;;;9.85;62.69
63204;BME280;49297;43.210;27.914;2022-12-18T05:01:23;102191.34;;;9.81;61.91
63204;BME280;49297;43.210;27.914;2022-12-18T05:03:50;102197.75;;;9.77;62.81
63204;BME280;49297;43.210;27.914;2022-12-18T05:06:16;102209.56;;;9.71;62.08
63204;BME280;49297;43.210;27.914;2022-12-18T05:08:42;102220.44;;;9.66;62.16
63204;BME280;49297;43.210;27.914;2022-12-18T05:11:11;102223.19;;;9.65;62.38
63204;BME280;49297;43.210;27.914;2022-12-18T05:13:38;102226.66;;;9.65;62.37
63204;BME280;49297;43.210;27.914;2022-12-18T05:16:04;102229.50;;;9.62;62.29
63204;BME280;49297;43.210;27.914;2022-12-18T05:18:30;102235.00;;;9.59;61.99
63204;BME280;49297;43.210;27.914;2022-12-18T05:20:57;102251.13;;;9.55;62.42
63204;BME280;49297;43.210;27.914;2022-12-18T05:23:24;102248.66;;;9.51;63.24
63204;BME280;49297;43.210;27.914;2022-12-18T05:25:51;102256.50;;;9.53;63.26
63204;BME280;49297;43.210;27.914;2022-12-18T05:28:18;102262.63;;;9.53;63.22
63204;BME280;49297;43.210;27.914;2022-12-18T05:30:52;102271.78;;;9.48;62.64
63204;BME280;49297;43.210;27.914;2022-12-18T05:33:19;102263.09;;;9.31;62.36
63204;BME280;49297;43.210;27.914;2022-12-18T05:35:53;102279.91;;;9.30;62.87
63204;BME280;49297;43.210;27.914;2022-12-18T05:38:20;102289.09;;;9.23;62.25
63204;BME280;49297;43.210;27.914;2022-12-18T05:40:47;102279.00;;;9.15;62.20
63204;BME280;49297;43.210;27.914;2022-12-18T05:43:13;102286.53;;;9.07;62.76
63204;BME280;49297;43.210;27.914;2022-12-18T05:45:40;102293.81;;;9.04;62.94
63204;BME280;49297;43.210;27.914;2022-12-18T05:48:07;102301.88;;;9.01;63.33
63204;BME280;49297;43.210;27.914;2022-12-18T05:50:37;102308.19;;;8.98;62.63
63204;BME280;49297;43.210;27.914;2022-12-18T05:53:03;102311.69;;;8.99;63.32
63204;BME280;49297;43.210;27.914;2022-12-18T05:55:33;102329.31;;;8.98;63.05
63204;BME280;49297;43.210;27.914;2022-12-18T05:58:00;102328.66;;;8.94;62.91
63204;BME280;49297;43.210;27.914;2022-12-18T06:00:26;102340.69;;;8.84;62.10
63204;BME280;49297;43.210;27.914;2022-12-18T06:02:52;102348.63;;;8.84;62.07
63204;BME280;49297;43.210;27.914;2022-12-18T06:05:17;102354.91;;;8.82;62.51
63204;BME280;49297;43.210;27.914;2022-12-18T06:07:43;102353.03;;;8.84;62.59
63204;BME280;49297;43.210;27.914;2022-12-18T06:10:09;102357.38;;;8.85;62.00
63204;BME280;49297;43.210;27.914;2022-12-18T06:12:35;102376.41;;;8.75;60.83
63204;BME280;49297;43.210;27.914;2022-12-18T06:15:01;102388.25;;;8.68;61.11
63204;BME280;49297;43.210;27.914;2022-12-18T06:17:31;102408.16;;;8.58;61.81
63204;BME280;49297;43.210;27.914;2022-12-18T06:19:58;102412.91;;;8.51;61.02
63204;BME280;49297;43.210;27.914;2022-12-18T06:22:24;102427.28;;;8.46;62.57
63204;BME280;49297;43.210;27.914;2022-12-18T06:24:50;102439.47;;;8.48;62.00
63204;BME280;49297;43.210;27.914;2022-12-18T06:27:16;102449.84;;;8.51;61.92
63204;BME280;49297;43.210;27.914;2022-12-18T06:29:43;102455.41;;;8.47;61.46
63204;BME280;49297;43.210;27.914;2022-12-18T06:32:08;102465.16;;;8.45;62.36
63204;BME280;49297;43.210;27.914;2022-12-18T06:34:36;102474.16;;;8.41;62.24
63204;BME280;49297;43.210;27.914;2022-12-18T06:37:02;102469.72;;;8.41;62.44
63204;BME280;49297;43.210;27.914;2022-12-18T06:39:28;102475.00;;;8.41;63.02
63204;BME280;49297;43.210;27.914;2022-12-18T06:41:54;102482.78;;;8.44;62.49
63204;BME280;49297;43.210;27.914;2022-12-18T06:44:20;102501.88;;;8.49;63.04
63204;BME280;49297;43.210;27.914;2022-12-18T06:46:46;102508.19;;;8.47;63.00
63204;BME280;49297;43.210;27.914;2022-12-18T06:49:12;102508.34;;;8.44;62.96
63204;BME280;49297;43.210;27.914;2022-12-18T06:51:38;102502.28;;;8.42;63.68
63204;BME280;49297;43.210;27.914;2022-12-18T06:54:03;102512.69;;;8.45;63.36
63204;BME280;49297;43.210;27.914;2022-12-18T06:56:29;102503.69;;;8.49;63.53
63204;BME280;49297;43.210;27.914;2022-12-18T06:58:55;102505.28;;;8.51;63.00
63204;BME280;49297;43.210;27.914;2022-12-18T07:01:21;102506.13;;;8.52;63.87
63204;BME280;49297;43.210;27.914;2022-12-18T07:03:52;102508.09;;;8.48;62.56
63204;BME280;49297;43.210;27.914;2022-12-18T07:06:20;102520.59;;;8.27;62.26
63204;BME280;49297;43.210;27.914;2022-12-18T07:08:47;102531.72;;;8.16;62.96
63204;BME280;49297;43.210;27.914;2022-12-18T07:11:14;102517.41;;;8.03;63.60
63204;BME280;49297;43.210;27.914;2022-12-18T07:13:40;102530.69;;;8.01;63.43
63204;BME280;49297;43.210;27.914;2022-12-18T07:16:10;102533.47;;;7.98;63.89
63204;BME280;49297;43.210;27.914;2022-12-18T07:18:36;102534.00;;;7.88;63.89
63204;BME280;49297;43.210;27.914;2022-12-18T07:21:06;102536.63;;;7.88;64.27
63204;BME280;49297;43.210;27.914;2022-12-18T07:23:34;102545.50;;;7.87;64.28
63204;BME280;49297;43.210;27.914;2022-12-18T07:26:04;102541.13;;;7.86;64.24
63204;BME280;49297;43.210;27.914;2022-12-18T07:28:32;102549.03;;;7.86;63.75
63204;BME280;49297;43.210;27.914;2022-12-18T07:31:01;102550.13;;;7.81;63.77
63204;BME280;49297;43.210;27.914;2022-12-18T07:33:27;102551.44;;;7.73;64.43
63204;BME280;49297;43.210;27.914;2022-12-18T07:35:53;102555.84;;;7.72;64.96
63204;BME280;49297;43.210;27.914;2022-12-18T07:38:19;102561.28;;;7.69;65.00
63204;BME280;49297;43.210;27.914;2022-12-18T07:40:46;102560.44;;;7.69;65.15
63204;BME280;49297;43.210;27.914;2022-12-18T07:43:12;102563.06;;;7.69;64.60
63204;BME280;49297;43.210;27.914;2022-12-18T07:45:38;102565.53;;;7.72;64.69
63204;BME280;49297;43.210;27.914;2022-12-18T07:48:04;102569.75;;;7.76;65.06
63204;BME280;49297;43.210;27.914;2022-12-18T07:50:30;102565.19;;;7.79;65.27
63204;BME280;49297;43.210;27.914;2022-12-18T07:52:56;102567.69;;;7.82;64.71
63204;BME280;49297;43.210;27.914;2022-12-18T07:55:22;102563.72;;;7.91;64.75
63204;BME280;49297;43.210;27.914;2022-12-18T07:57:49;102569.09;;;7.90;64.65
63204;BME280;49297;43.210;27.914;2022-12-18T08:00:15;102575.06;;;7.93;64.74
63204;BME280;49297;43.210;27.914;2022-12-18T08:02:41;102575.75;;;7.97;64.38
63204;BME280;49297;43.210;27.914;2022-12-18T08:05:07;102580.66;;;8.05;64.56
63204;BME280;49297;43.210;27.914;2022-12-18T08:07:33;102586.69;;;8.07;64.13
63204;BME280;49297;43.210;27.914;2022-12-18T08:09:59;102592.13;;;8.04;64.32
63204;BME280;49297;43.210;27.914;2022-12-18T08:12:25;102597.47;;;8.02;64.23
63204;BME280;49297;43.210;27.914;2022-12-18T08:14:50;102594.50;;;7.91;63.71
63204;BME280;49297;43.210;27.914;2022-12-18T08:17:16;102607.06;;;7.86;64.28
63204;BME280;49297;43.210;27.914;2022-12-18T08:19:42;102591.53;;;7.79;64.25
63204;BME280;49297;43.210;27.914;2022-12-18T08:22:08;102595.09;;;7.78;65.10
63204;BME280;49297;43.210;27.914;2022-12-18T08:24:33;102590.78;;;7.77;64.65
63204;BME280;49297;43.210;27.914;2022-12-18T08:26:59;102586.28;;;7.79;64.37
63204;BME280;49297;43.210;27.914;2022-12-18T08:29:25;102583.50;;;7.82;64.81
63204;BME280;49297;43.210;27.914;2022-12-18T08:31:51;102595.97;;;7.79;64.77
63204;BME280;49297;43.210;27.914;2022-12-18T08:34:16;102584.63;;;7.77;64.90
63204;BME280;49297;43.210;27.914;2022-12-18T08:36:42;102596.19;;;7.74;65.12
63204;BME280;49297;43.210;27.914;2022-12-18T08:39:08;102596.13;;;7.76;65.36
63204;BME280;49297;43.210;27.914;2022-12-18T08:41:34;102585.31;;;7.80;65.27
63204;BME280;49297;43.210;27.914;2022-12-18T08:44:00;102586.03;;;7.84;64.75
63204;BME280;49297;43.210;27.914;2022-12-18T08:46:44;102592.31;;;7.81;64.95
63204;BME280;49297;43.210;27.914;2022-12-18T08:49:11;102587.19;;;7.78;65.15
63204;BME280;49297;43.210;27.914;2022-12-18T08:51:38;102585.72;;;7.73;65.42
63204;BME280;49297;43.210;27.914;2022-12-18T08:54:04;102588.41;;;7.71;65.30
63204;BME280;49297;43.210;27.914;2022-12-18T08:56:30;102598.81;;;7.74;65.76
63204;BME280;49297;43.210;27.914;2022-12-18T08:58:56;102589.91;;;7.77;65.32
63204;BME280;49297;43.210;27.914;2022-12-18T09:01:24;102590.06;;;7.74;65.07
63204;BME280;49297;43.210;27.914;2022-12-18T09:03:50;102590.13;;;7.72;65.19
63204;BME280;49297;43.210;27.914;2022-12-18T09:06:17;102587.13;;;7.80;65.38
63204;BME280;49297;43.210;27.914;2022-12-18T09:08:44;102590.72;;;7.79;65.37
63204;BME280;49297;43.210;27.914;2022-12-18T09:11:25;102597.72;;;7.78;65.13
63204;BME280;49297;43.210;27.914;2022-12-18T09:13:52;102590.78;;;7.77;65.46
63204;BME280;49297;43.210;27.914;2022-12-18T09:16:18;102581.00;;;7.79;65.00
63204;BME280;49297;43.210;27.914;2022-12-18T09:18:45;102580.84;;;7.82;65.86
63204;BME280;49297;43.210;27.914;2022-12-18T09:21:17;102575.41;;;7.86;65.07
63204;BME280;49297;43.210;27.914;2022-12-18T09:23:45;102590.25;;;7.88;64.97
63204;BME280;49297;43.210;27.914;2022-12-18T09:26:14;102587.75;;;7.85;65.40
63204;BME280;49297;43.210;27.914;2022-12-18T09:28:40;102579.91;;;7.84;65.75
63204;BME280;49297;43.210;27.914;2022-12-18T09:31:07;102577.97;;;7.87;65.70
63204;BME280;49297;43.210;27.914;2022-12-18T09:33:37;102582.28;;;7.90;65.29
63204;BME280;49297;43.210;27.914;2022-12-18T09:36:04;102591.25;;;7.86;65.29
63204;BME280;49297;43.210;27.914;2022-12-18T09:38:30;102588.47;;;7.89;65.52
63204;BME280;49297;43.210;27.914;2022-12-18T09:43:50;102584.28;;;7.85;65.71
63204;BME280;49297;43.210;27.914;2022-12-18T09:46:26;102592.31;;;7.81;65.39
63204;BME280;49297;43.210;27.914;2022-12-18T09:48:58;102592.41;;;7.80;65.50
63204;BME280;49297;43.210;27.914;2022-12-18T09:51:40;102587.34;;;7.75;65.86
63204;BME280;49297;43.210;27.914;2022-12-18T09:54:39;102584.88;;;7.72;66.28
63204;BME280;49297;43.210;27.914;2022-12-18T09:57:05;102584.16;;;7.69;65.97
63204;BME280;49297;43.210;27.914;2022-12-18T09:59:38;102576.81;;;7.75;66.07
63204;BME280;49297;43.210;27.914;2022-12-18T10:02:20;102573.72;;;7.85;65.86
63204;BME280;49297;43.210;27.914;2022-12-18T10:05:04;102580.03;;;7.99;65.71
63204;BME280;49297;43.210;27.914;2022-12-18T10:07:41;102569.47;;;7.99;65.00
63204;BME280;49297;43.210;27.914;2022-12-18T10:10:31;102577.09;;;8.06;65.10
63204;BME280;49297;43.210;27.914;2022-12-18T10:27:15;102581.03;;;8.14;64.84
63204;BME280;49297;43.210;27.914;2022-12-18T10:29:44;102578.88;;;8.23;64.47
63204;BME280;49297;43.210;27.914;2022-12-18T10:32:16;102583.69;;;8.32;64.92
63204;BME280;49297;43.210;27.914;2022-12-18T10:34:48;102586.72;;;8.42;63.81
63204;BME280;49297;43.210;27.914;2022-12-18T10:37:20;102587.06;;;8.53;64.01
63204;BME280;49297;43.210;27.914;2022-12-18T10:40:15;102601.19;;;8.52;63.64
63204;BME280;49297;43.210;27.914;2022-12-18T10:42:41;102592.56;;;8.48;63.39
63204;BME280;49297;43.210;27.914;2022-12-18T10:45:15;102598.78;;;8.47;64.13
63204;BME280;49297;43.210;27.914;2022-12-18T10:47:50;102598.72;;;8.49;64.16
63204;BME280;49297;43.210;27.914;2022-12-18T10:50:26;102602.75;;;8.56;63.59
63204;BME280;49297;43.210;27.914;2022-12-18T10:52:55;102599.00;;;8.60;63.51
63204;BME280;49297;43.210;27.914;2022-12-18T10:55:21;102605.84;;;8.64;63.45
63204;BME280;49297;43.210;27.914;2022-12-18T10:57:47;102603.59;;;8.74;63.17
63204;BME280;49297;43.210;27.914;2022-12-18T11:00:27;102618.34;;;8.78;63.16
63204;BME280;49297;43.210;27.914;2022-12-18T11:02:54;102621.53;;;8.67;62.87
63204;BME280;49297;43.210;27.914;2022-12-18T11:05:27;102612.44;;;8.55;63.68
63204;BME280;49297;43.210;27.914;2022-12-18T11:07:54;102615.00;;;8.57;63.03
63204;BME280;49297;43.210;27.914;2022-12-18T11:10:26;102626.50;;;8.56;63.17
63204;BME280;49297;43.210;27.914;2022-12-18T11:12:53;102635.75;;;8.65;63.78
63204;BME280;49297;43.210;27.914;2022-12-18T11:15:23;102635.44;;;8.71;64.10
63204;BME280;49297;43.210;27.914;2022-12-18T11:17:51;102631.53;;;8.78;63.44
63204;BME280;49297;43.210;27.914;2022-12-18T11:23:00;102635.50;;;8.69;63.11
63204;BME280;49297;43.210;27.914;2022-12-18T11:25:27;102640.97;;;8.66;62.97
63204;BME280;49297;43.210;27.914;2022-12-18T11:27:56;102637.44;;;8.66;63.79
63204;BME280;49297;43.210;27.914;2022-12-18T11:30:27;102649.59;;;8.70;63.66
63204;BME280;49297;43.210;27.914;2022-12-18T11:38:00;102638.31;;;8.66;64.31
63204;BME280;49297;43.210;27.914;2022-12-18T11:40:40;102640.16;;;8.64;63.89
63204;BME280;49297;43.210;27.914;2022-12-18T11:43:16;102650.28;;;8.73;64.24
63204;BME280;49297;43.210;27.914;2022-12-18T11:45:53;102655.63;;;8.72;63.83
63204;BME280;49297;43.210;27.914;2022-12-18T11:50:50;102636.13;;;8.57;64.09
63204;BME280;49297;43.210;27.914;2022-12-18T11:53:18;102631.72;;;8.57;64.52
63204;BME280;49297;43.210;27.914;2022-12-18T12:09:47;102648.00;;;9.01;64.30
63204;BME280;49297;43.210;27.914;2022-12-18T12:20:57;102676.16;;;8.84;63.40
63204;BME280;49297;43.210;27.914;2022-12-18T12:23:41;102688.41;;;8.85;63.77
63204;BME280;49297;43.210;27.914;2022-12-18T12:29:32;102688.88;;;8.93;63.33
63204;BME280;49297;43.210;27.914;2022-12-18T12:32:11;102698.34;;;8.80;62.88
63204;BME280;49297;43.210;27.914;2022-12-18T12:40:19;102690.41;;;8.63;64.66
63204;BME280;49297;43.210;27.914;2022-12-18T12:42:52;102700.59;;;8.70;64.74
63204;BME280;49297;43.210;27.914;2022-12-18T12:45:58;102702.22;;;8.73;64.39
63204;BME280;49297;43.210;27.914;2022-12-18T12:53:39;102724.13;;;8.75;64.33
63204;BME280;49297;43.210;27.914;2022-12-18T12:56:09;102731.06;;;8.77;64.12
63204;BME280;49297;43.210;27.914;2022-12-18T13:07:15;102728.41;;;8.60;61.36
63204;BME280;49297;43.210;27.914;2022-12-18T13:12:52;102728.84;;;8.51;61.11
63204;BME280;49297;43.210;27.914;2022-12-18T13:15:46;102736.47;;;8.57;62.15
63204;BME280;49297;43.210;27.914;2022-12-18T13:18:22;102735.47;;;8.60;61.25
63204;BME280;49297;43.210;27.914;2022-12-18T13:21:04;102737.41;;;8.56;59.96
63204;BME280;49297;43.210;27.914;2022-12-18T13:23:37;102743.47;;;8.58;59.18
63204;BME280;49297;43.210;27.914;2022-12-18T13:34:17;102767.59;;;8.50;57.10
63204;BME280;49297;43.210;27.914;2022-12-18T13:36:43;102759.06;;;8.45;56.52
63204;BME280;49297;43.210;27.914;2022-12-18T13:41:48;102756.66;;;8.39;55.94
63204;BME280;49297;43.210;27.914;2022-12-18T13:44:33;102762.81;;;8.39;56.60
63204;BME280;49297;43.210;27.914;2022-12-18T13:47:02;102774.28;;;8.38;56.76
63204;BME280;49297;43.210;27.914;2022-12-18T13:49:39;102780.47;;;8.37;56.40
63204;BME280;49297;43.210;27.914;2022-12-18T13:52:22;102773.44;;;8.38;57.02
63204;BME280;49297;43.210;27.914;2022-12-18T13:55:16;102772.44;;;8.41;56.02
63204;BME280;49297;43.210;27.914;2022-12-18T13:57:43;102789.09;;;8.41;56.50
63204;BME280;49297;43.210;27.914;2022-12-18T14:00:28;102788.25;;;8.41;56.13
63204;BME280;49297;43.210;27.914;2022-12-18T14:02:56;102806.88;;;8.37;54.68
63204;BME280;49297;43.210;27.914;2022-12-18T14:05:29;102811.69;;;8.29;55.46
63204;BME280;49297;43.210;27.914;2022-12-18T14:08:05;102810.47;;;8.17;55.39
63204;BME280;49297;43.210;27.914;2022-12-18T14:10:31;102806.19;;;8.15;55.68
63204;BME280;49297;43.210;27.914;2022-12-18T14:13:04;102813.16;;;8.16;56.17
63204;BME280;49297;43.210;27.914;2022-12-18T14:15:43;102813.03;;;8.19;56.33
63204;BME280;49297;43.210;27.914;2022-12-18T14:18:26;102825.16;;;8.23;57.08
63204;BME280;49297;43.210;27.914;2022-12-18T14:20:57;102827.66;;;8.26;56.81
63204;BME280;49297;43.210;27.914;2022-12-18T14:23:36;102831.19;;;8.25;56.76
63204;BME280;49297;43.210;27.914;2022-12-18T14:26:23;102823.44;;;8.22;56.62
63204;BME280;49297;43.210;27.914;2022-12-18T14:28:51;102832.22;;;8.23;57.38
63204;BME280;49297;43.210;27.914;2022-12-18T14:31:18;102826.94;;;8.23;56.64
63204;BME280;49297;43.210;27.914;2022-12-18T14:33:45;102843.56;;;8.25;57.57
63204;BME280;49297;43.210;27.914;2022-12-18T14:36:21;102849.59;;;8.27;57.55
63204;BME280;49297;43.210;27.914;2022-12-18T14:38:49;102865.38;;;8.28;57.82
63204;BME280;49297;43.210;27.914;2022-12-18T14:41:17;102867.16;;;8.28;57.33
63204;BME280;49297;43.210;27.914;2022-12-18T14:43:46;102864.59;;;8.26;57.70
63204;BME280;49297;43.210;27.914;2022-12-18T14:46:35;102863.75;;;8.26;57.86
63204;BME280;49297;43.210;27.914;2022-12-18T14:51:31;102857.84;;;8.39;59.92
63204;BME280;49297;43.210;27.914;2022-12-18T14:54:16;102867.69;;;8.36;58.33
63204;BME280;49297;43.210;27.914;2022-12-18T14:56:48;102869.50;;;8.34;57.61
63204;BME280;49297;43.210;27.914;2022-12-18T14:59:24;102887.84;;;8.37;59.98
63204;BME280;49297;43.210;27.914;2022-12-18T15:01:57;102892.16;;;8.39;60.33
63204;BME280;49297;43.210;27.914;2022-12-18T15:04:34;102898.41;;;8.37;59.09